Time;durP1;ratioP1;P1;durP2;ratioP2;P2;SDS_P1;SDS_P2;PMS_P1;PMS_P2;Temp;Humidity;BMP_temperature;BMP_pressure;BME280_temperature;BME280_humidity;BME280_pressure;Samples;Min_cycle;Max_cycle;Signal;HPM_P1;HPM_P2
2022/03/27 00:00:03;;;;;;;18.55;13.85;;;;;;;;;;519859;28;839;-70
2022/03/27 00:00:18;;;;;;;19.38;13.77;;;;;;;;;;518325;28;1415;-70
2022/03/27 00:00:34;;;;;;;20.07;13.60;;;;;;;;;;517428;28;923;-70
2022/03/27 00:00:50;;;;;;;19.10;13.38;;;;;;;;;;517870;28;824;-70
2022/03/27 00:01:06;;;;;;;18.33;13.48;;;;;;;;;;514916;28;1362;-70
2022/03/27 00:01:21;;;;;;;18.30;13.68;;;;;;;;;;515158;28;1291;-70
2022/03/27 00:01:36;;;;;;;18.73;13.93;;;;;;;;;;515443;28;1284;-70
2022/03/27 00:01:51;;;;;;;18.70;14.20;;;;;;;;;;515925;28;844;-70
2022/03/27 00:02:07;;;;;;;19.42;14.27;;;;;;;;;;513975;28;1379;-70
2022/03/27 00:02:22;;;;;;;18.97;14.00;;;;;;;;;;515456;28;804;-70
2022/03/27 00:02:38;;;;;;;17.73;13.90;;;;;;;;;;515609;28;1279;-70
2022/03/27 00:02:53;;;;;;;19.55;14.02;;;;;;;;;;516014;28;1519;-70
2022/03/27 00:03:09;;;;;;;19.40;13.90;;;;;;;;;;515883;28;776;-70
2022/03/27 00:03:24;;;;;;;17.30;13.73;;;;;;;;;;515827;28;911;-70
2022/03/27 00:03:39;;;;;;;18.10;13.70;;;;;;;;;;515472;28;899;-70
2022/03/27 00:03:55;;;;;;;19.92;13.98;;;;;;;;;;515019;28;1099;-70
2022/03/27 00:04:10;;;;;;;18.50;13.77;;;;;;;;;;517666;28;848;-70
2022/03/27 00:04:25;;;;;;;17.40;13.70;;;;;;;;;;518007;28;733;-71
2022/03/27 00:04:41;;;;;;;17.00;13.73;;;;;;;;;;517661;28;753;-70
2022/03/27 00:04:56;;;;;;;18.10;13.40;;;;;;;;;;517691;28;789;-70
2022/03/27 00:05:12;;;;;;;18.80;13.40;;;;;;;;;;517337;28;1389;-70
2022/03/27 00:05:28;;;;;;;20.02;13.77;;;;;;;;;;515798;28;1156;-70
2022/03/27 00:05:43;;;;;;;19.83;14.03;;;;;;;;;;517176;28;890;-70
2022/03/27 00:05:58;;;;;;;19.40;14.20;;;;;;;;;;518182;28;721;-70
2022/03/27 00:06:14;;;;;;;19.95;13.93;;;;;;;;;;518106;28;804;-70
2022/03/27 00:06:29;;;;;;;17.67;13.47;;;;;;;;;;517568;28;756;-70
2022/03/27 00:06:44;;;;;;;17.93;13.40;;;;;;;;;;517085;28;1355;-70
2022/03/27 00:06:59;;;;;;;18.13;13.35;;;;;;;;;;516617;28;1405;-70
2022/03/27 00:07:15;;;;;;;20.73;14.13;;;;;;;;;;519232;28;1422;-70
2022/03/27 00:07:30;;;;;;;21.33;14.33;;;;;;;;;;517882;28;915;-70
2022/03/27 00:07:45;;;;;;;18.60;13.80;;;;;;;;;;517163;28;938;-70
2022/03/27 00:08:01;;;;;;;18.17;13.90;;;;;;;;;;518966;28;947;-70
2022/03/27 00:08:16;;;;;;;18.90;13.77;;;;;;;;;;517873;28;1133;-70
2022/03/27 00:08:32;;;;;;;17.75;13.43;;;;;;;;;;517949;28;1026;-70
2022/03/27 00:08:47;;;;;;;17.10;13.80;;;;;;;;;;517817;28;851;-70
2022/03/27 00:09:03;;;;;;;18.13;14.43;;;;;;;;;;517740;28;2193;-70
2022/03/27 00:09:18;;;;;;;18.67;14.38;;;;;;;;;;517608;28;800;-70
2022/03/27 00:09:34;;;;;;;19.07;14.00;;;;;;;;;;517194;28;765;-70
2022/03/27 00:09:49;;;;;;;19.42;13.90;;;;;;;;;;515319;28;1228;-70
2022/03/27 00:10:06;;;;;;;19.47;13.97;;;;;;;;;;515851;28;947;-70
2022/03/27 00:10:21;;;;;;;19.13;14.05;;;;;;;;;;516052;28;1187;-70
2022/03/27 00:11:27;;;;;;;21.73;13.63;;;;;;;;;;517613;28;662;-69
2022/03/27 00:11:42;;;;;;;18.63;13.63;;;;;;;;;;517914;28;856;-70
2022/03/27 00:11:57;;;;;;;19.27;13.73;;;;;;;;;;516617;28;1182;-70
2022/03/27 00:12:13;;;;;;;20.87;14.00;;;;;;;;;;517036;28;1244;-70
2022/03/27 00:12:28;;;;;;;18.27;13.57;;;;;;;;;;516236;28;864;-69
2022/03/27 00:12:44;;;;;;;18.05;13.15;;;;;;;;;;517228;28;1205;-70
2022/03/27 00:13:00;;;;;;;19.92;13.35;;;;;;;;;;517618;28;819;-70
2022/03/27 00:13:15;;;;;;;18.40;13.27;;;;;;;;;;515997;28;875;-70
2022/03/27 00:13:30;;;;;;;17.85;13.07;;;;;;;;;;513685;28;1218;-70
2022/03/27 00:13:45;;;;;;;19.50;13.10;;;;;;;;;;513869;28;753;-69
2022/03/27 00:14:03;;;;;;;18.00;13.07;;;;;;;;;;513334;28;594;-70
2022/03/27 00:14:18;;;;;;;17.60;13.50;;;;;;;;;;513745;28;880;-70
2022/03/27 00:14:33;;;;;;;18.43;13.90;;;;;;;;;;515143;28;955;-70
2022/03/27 00:14:48;;;;;;;18.60;13.80;;;;;;;;;;517885;28;824;-70
2022/03/27 00:15:05;;;;;;;19.43;13.77;;;;;;;;;;516331;28;1379;-70
2022/03/27 00:15:20;;;;;;;20.08;14.13;;;;;;;;;;517219;28;1341;-70
2022/03/27 00:15:35;;;;;;;20.00;14.13;;;;;;;;;;515937;28;813;-70
2022/03/27 00:15:51;;;;;;;19.40;13.80;;;;;;;;;;515921;28;765;-70
2022/03/27 00:16:06;;;;;;;19.92;13.85;;;;;;;;;;515602;28;812;-70
2022/03/27 00:16:22;;;;;;;18.63;13.77;;;;;;;;;;517945;28;745;-70
2022/03/27 00:16:37;;;;;;;16.77;13.52;;;;;;;;;;518054;28;931;-70
2022/03/27 00:16:53;;;;;;;16.43;13.30;;;;;;;;;;518044;28;852;-70
2022/03/27 00:17:08;;;;;;;17.67;13.55;;;;;;;;;;516990;28;820;-70
2022/03/27 00:17:23;;;;;;;18.13;13.60;;;;;;;;;;517159;28;753;-70
2022/03/27 00:17:39;;;;;;;18.53;13.57;;;;;;;;;;517928;28;947;-70
2022/03/27 00:17:54;;;;;;;17.73;13.45;;;;;;;;;;517722;28;1969;-70
2022/03/27 00:18:09;;;;;;;16.50;13.47;;;;;;;;;;517750;28;991;-70
2022/03/27 00:18:25;;;;;;;17.80;13.83;;;;;;;;;;517968;28;859;-70
2022/03/27 00:18:41;;;;;;;19.05;13.95;;;;;;;;;;517187;28;808;-70
2022/03/27 00:18:56;;;;;;;19.60;14.82;;;;;;;;;;519896;28;1255;-70
2022/03/27 00:19:11;;;;;;;19.13;15.23;;;;;;;;;;519920;28;903;-70
2022/03/27 00:19:27;;;;;;;18.23;14.37;;;;;;;;;;519691;28;1514;-70
2022/03/27 00:19:42;;;;;;;19.33;14.07;;;;;;;;;;517246;28;1184;-70
2022/03/27 00:19:59;;;;;;;19.43;14.17;;;;;;;;;;513619;28;1186;-70
2022/03/27 00:20:15;;;;;;;18.65;14.27;;;;;;;;;;513003;28;1355;-70
2022/03/27 00:20:30;;;;;;;18.52;13.85;;;;;;;;;;515090;28;1495;-69
2022/03/27 00:20:45;;;;;;;17.90;13.30;;;;;;;;;;515577;28;828;-70
2022/03/27 00:21:00;;;;;;;17.30;13.50;;;;;;;;;;513991;28;948;-70
2022/03/27 00:21:16;;;;;;;18.65;13.90;;;;;;;;;;514111;28;955;-70
2022/03/27 00:21:32;;;;;;;19.63;14.17;;;;;;;;;;515978;28;737;-70
2022/03/27 00:21:47;;;;;;;20.27;14.48;;;;;;;;;;516544;28;935;-70
2022/03/27 00:22:04;;;;;;;20.10;14.20;;;;;;;;;;517806;28;832;-69
2022/03/27 00:22:19;;;;;;;19.40;14.02;;;;;;;;;;515257;28;1494;-70
2022/03/27 00:22:36;;;;;;;19.43;13.90;;;;;;;;;;517800;28;856;-69
2022/03/27 00:22:54;;;;;;;18.40;13.93;;;;;;;;;;517632;28;796;-70
2022/03/27 00:23:09;;;;;;;17.05;13.68;;;;;;;;;;517832;28;828;-70
2022/03/27 00:23:24;;;;;;;17.87;13.80;;;;;;;;;;517724;28;1060;-70
2022/03/27 00:23:40;;;;;;;19.13;13.87;;;;;;;;;;514441;28;901;-70
2022/03/27 00:23:56;;;;;;;20.27;13.65;;;;;;;;;;513205;28;860;-70
2022/03/27 00:24:11;;;;;;;19.53;13.43;;;;;;;;;;515727;28;1082;-70
2022/03/27 00:24:27;;;;;;;19.33;13.80;;;;;;;;;;515628;28;1754;-70
2022/03/27 00:24:42;;;;;;;19.90;14.30;;;;;;;;;;517301;28;863;-70
2022/03/27 00:24:57;;;;;;;18.50;13.93;;;;;;;;;;518855;28;1204;-70
2022/03/27 00:25:13;;;;;;;18.20;14.07;;;;;;;;;;518028;28;894;-70
2022/03/27 00:25:28;;;;;;;18.30;14.10;;;;;;;;;;519675;28;835;-70
2022/03/27 00:25:45;;;;;;;18.58;13.55;;;;;;;;;;518021;28;986;-70
2022/03/27 00:26:01;;;;;;;19.30;13.35;;;;;;;;;;518774;28;988;-70
2022/03/27 00:26:16;;;;;;;19.43;13.50;;;;;;;;;;520079;28;756;-70
2022/03/27 00:26:32;;;;;;;18.27;13.45;;;;;;;;;;517302;28;1451;-70
2022/03/27 00:26:48;;;;;;;17.60;13.80;;;;;;;;;;515782;28;847;-70
2022/03/27 00:27:03;;;;;;;17.70;13.70;;;;;;;;;;515705;28;1155;-70
2022/03/27 00:27:18;;;;;;;18.38;13.38;;;;;;;;;;516020;28;749;-70
2022/03/27 00:27:35;;;;;;;18.93;13.47;;;;;;;;;;515771;28;895;-70
2022/03/27 00:27:50;;;;;;;18.55;13.45;;;;;;;;;;515406;28;817;-70
2022/03/27 00:28:05;;;;;;;18.58;13.45;;;;;;;;;;515599;28;1445;-70
2022/03/27 00:28:21;;;;;;;19.43;13.43;;;;;;;;;;515588;28;808;-70
2022/03/27 00:28:36;;;;;;;19.70;13.70;;;;;;;;;;513154;28;1313;-70
2022/03/27 00:28:52;;;;;;;19.17;13.80;;;;;;;;;;513962;28;796;-70
2022/03/27 00:29:08;;;;;;;17.97;13.67;;;;;;;;;;515843;28;765;-69
2022/03/27 00:29:23;;;;;;;16.98;13.35;;;;;;;;;;515777;28;860;-70
2022/03/27 00:29:39;;;;;;;17.37;13.63;;;;;;;;;;515929;28;1379;-70
2022/03/27 00:29:54;;;;;;;17.17;14.00;;;;;;;;;;515787;28;1161;-70
2022/03/27 00:30:09;;;;;;;19.67;14.10;;;;;;;;;;515936;28;844;-70
2022/03/27 00:30:25;;;;;;;21.67;13.80;;;;;;;;;;513097;28;1271;-70
2022/03/27 00:30:41;;;;;;;18.73;13.15;;;;;;;;;;515279;28;801;-70
2022/03/27 00:30:56;;;;;;;16.70;13.32;;;;;;;;;;516204;28;792;-70
2022/03/27 00:31:12;;;;;;;16.30;13.43;;;;;;;;;;517906;28;780;-70
2022/03/27 00:31:35;;;;;;;17.38;13.63;;;;;;;;;;517692;28;1270;-70
2022/03/27 00:31:50;;;;;;;17.70;13.75;;;;;;;;;;516490;28;872;-70
2022/03/27 00:32:06;;;;;;;17.83;13.50;;;;;;;;;;515526;28;1136;-70
2022/03/27 00:32:22;;;;;;;19.73;14.07;;;;;;;;;;515841;28;1000;-70
2022/03/27 00:32:38;;;;;;;21.83;14.40;;;;;;;;;;515355;28;804;-70
2022/03/27 00:32:54;;;;;;;20.08;14.07;;;;;;;;;;515494;28;801;-70
2022/03/27 00:33:09;;;;;;;19.10;13.80;;;;;;;;;;515771;28;821;-70
2022/03/27 00:33:24;;;;;;;19.30;13.52;;;;;;;;;;512677;28;1214;-70
2022/03/27 00:33:41;;;;;;;19.17;13.63;;;;;;;;;;514121;28;880;-70
2022/03/27 00:33:57;;;;;;;20.65;13.38;;;;;;;;;;516174;28;1692;-70
2022/03/27 00:34:12;;;;;;;19.83;13.30;;;;;;;;;;517694;28;1306;-70
2022/03/27 00:34:27;;;;;;;18.47;13.57;;;;;;;;;;517762;28;757;-70
2022/03/27 00:34:43;;;;;;;19.07;13.37;;;;;;;;;;517448;28;1053;-70
2022/03/27 00:34:58;;;;;;;20.58;13.75;;;;;;;;;;517457;28;769;-70
2022/03/27 00:35:15;;;;;;;21.57;13.83;;;;;;;;;;517728;28;963;-70
2022/03/27 00:35:30;;;;;;;20.02;13.48;;;;;;;;;;519920;28;796;-70
2022/03/27 00:35:46;;;;;;;17.80;13.27;;;;;;;;;;519556;28;1164;-70
2022/03/27 00:36:03;;;;;;;19.35;13.57;;;;;;;;;;519451;28;756;-70
2022/03/27 00:36:21;;;;;;;21.10;13.75;;;;;;;;;;518026;28;859;-70
2022/03/27 00:36:36;;;;;;;19.48;13.32;;;;;;;;;;517937;28;867;-70
2022/03/27 00:36:51;;;;;;;18.20;13.13;;;;;;;;;;517048;28;1295;-70
2022/03/27 00:37:06;;;;;;;19.50;13.20;;;;;;;;;;517586;28;1370;-70
2022/03/27 00:37:22;;;;;;;18.37;12.97;;;;;;;;;;517767;28;1449;-70
2022/03/27 00:37:37;;;;;;;18.38;13.00;;;;;;;;;;517305;28;740;-70
2022/03/27 00:37:52;;;;;;;19.53;13.27;;;;;;;;;;517529;28;1977;-70
2022/03/27 00:38:08;;;;;;;19.50;13.67;;;;;;;;;;517930;28;1156;-70
2022/03/27 00:38:23;;;;;;;19.48;13.73;;;;;;;;;;515720;28;1347;-70
2022/03/27 00:38:44;;;;;;;17.85;13.43;;;;;;;;;;515967;28;748;-70
2022/03/27 00:38:59;;;;;;;18.20;12.93;;;;;;;;;;515355;28;784;-69
2022/03/27 00:39:14;;;;;;;18.97;13.20;;;;;;;;;;515892;28;757;-70
2022/03/27 00:39:30;;;;;;;18.13;12.90;;;;;;;;;;515894;28;713;-70
2022/03/27 00:39:45;;;;;;;17.55;13.15;;;;;;;;;;515815;28;935;-70
2022/03/27 00:40:01;;;;;;;18.27;13.60;;;;;;;;;;516517;28;814;-69
2022/03/27 00:40:16;;;;;;;18.45;13.35;;;;;;;;;;517427;28;828;-70
2022/03/27 00:40:31;;;;;;;17.90;13.50;;;;;;;;;;517901;28;847;-70
2022/03/27 00:40:47;;;;;;;18.10;13.73;;;;;;;;;;517821;28;871;-70
2022/03/27 00:41:03;;;;;;;18.90;13.88;;;;;;;;;;517498;28;736;-70
2022/03/27 00:41:18;;;;;;;17.83;13.63;;;;;;;;;;517753;28;839;-70
2022/03/27 00:41:34;;;;;;;18.00;13.60;;;;;;;;;;517999;28;886;-70
2022/03/27 00:41:51;;;;;;;18.75;13.80;;;;;;;;;;516206;28;867;-69
2022/03/27 00:42:07;;;;;;;18.77;13.65;;;;;;;;;;515942;28;1266;-69
2022/03/27 00:42:22;;;;;;;18.80;13.60;;;;;;;;;;515112;28;1201;-69
2022/03/27 00:42:38;;;;;;;18.55;13.52;;;;;;;;;;517624;28;1188;-69
2022/03/27 00:42:53;;;;;;;18.73;13.70;;;;;;;;;;517620;28;1193;-70
2022/03/27 00:43:09;;;;;;;18.73;13.90;;;;;;;;;;515925;28;1108;-70
2022/03/27 00:43:25;;;;;;;18.83;13.80;;;;;;;;;;515299;28;1312;-70
2022/03/27 00:43:42;;;;;;;19.35;13.95;;;;;;;;;;515669;28;1355;-70
2022/03/27 00:43:57;;;;;;;20.05;13.88;;;;;;;;;;513505;28;1391;-70
2022/03/27 00:44:12;;;;;;;19.38;13.50;;;;;;;;;;513853;28;768;-70
2022/03/27 00:44:28;;;;;;;18.93;13.63;;;;;;;;;;511904;29;1180;-70
2022/03/27 00:44:43;;;;;;;20.20;14.20;;;;;;;;;;512467;28;828;-69
2022/03/27 00:44:58;;;;;;;19.90;14.27;;;;;;;;;;511330;28;1439;-70
2022/03/27 00:45:14;;;;;;;19.02;13.95;;;;;;;;;;511023;29;1067;-70
2022/03/27 00:45:29;;;;;;;18.10;13.80;;;;;;;;;;511657;28;1178;-70
2022/03/27 00:45:45;;;;;;;17.63;13.63;;;;;;;;;;512049;28;1158;-70
2022/03/27 00:46:01;;;;;;;18.85;13.95;;;;;;;;;;513601;28;839;-70
2022/03/27 00:46:17;;;;;;;18.33;13.93;;;;;;;;;;514024;28;851;-69
2022/03/27 00:46:32;;;;;;;17.87;13.63;;;;;;;;;;511957;29;1271;-70
2022/03/27 00:46:47;;;;;;;19.10;13.67;;;;;;;;;;512033;29;1006;-70
2022/03/27 00:47:03;;;;;;;18.15;13.50;;;;;;;;;;511923;28;1202;-70
2022/03/27 00:47:18;;;;;;;19.27;13.70;;;;;;;;;;512116;28;809;-70
2022/03/27 00:47:33;;;;;;;19.40;13.32;;;;;;;;;;515642;28;838;-70
2022/03/27 00:47:48;;;;;;;17.93;12.97;;;;;;;;;;515656;28;800;-70
2022/03/27 00:48:04;;;;;;;20.83;13.40;;;;;;;;;;516024;28;1264;-69
2022/03/27 00:48:21;;;;;;;20.55;13.35;;;;;;;;;;515710;28;967;-70
2022/03/27 00:48:36;;;;;;;17.90;13.57;;;;;;;;;;515749;28;1268;-70
2022/03/27 00:48:51;;;;;;;18.27;13.50;;;;;;;;;;515859;28;939;-70
2022/03/27 00:49:07;;;;;;;18.90;13.00;;;;;;;;;;517592;28;947;-70
2022/03/27 00:49:22;;;;;;;20.63;13.47;;;;;;;;;;515431;28;1173;-70
2022/03/27 00:49:37;;;;;;;19.85;13.40;;;;;;;;;;515793;28;1302;-70
2022/03/27 00:49:52;;;;;;;18.63;13.30;;;;;;;;;;515870;28;914;-70
2022/03/27 00:50:08;;;;;;;19.40;13.93;;;;;;;;;;517937;28;1000;-70
2022/03/27 00:50:24;;;;;;;19.80;14.07;;;;;;;;;;517025;28;943;-69
2022/03/27 00:50:39;;;;;;;20.27;13.97;;;;;;;;;;515593;28;1192;-70
2022/03/27 00:50:55;;;;;;;20.08;13.68;;;;;;;;;;515455;28;773;-70
2022/03/27 00:51:10;;;;;;;19.55;13.55;;;;;;;;;;515782;28;1393;-69
2022/03/27 00:51:25;;;;;;;18.23;13.40;;;;;;;;;;515765;28;847;-70
2022/03/27 00:51:41;;;;;;;18.83;13.40;;;;;;;;;;515635;28;1422;-70
2022/03/27 00:51:56;;;;;;;18.70;13.53;;;;;;;;;;515818;28;1063;-69
2022/03/27 00:52:11;;;;;;;17.80;13.65;;;;;;;;;;515893;28;847;-70
2022/03/27 00:52:26;;;;;;;18.03;13.57;;;;;;;;;;515754;28;891;-69
2022/03/27 00:52:42;;;;;;;19.00;13.87;;;;;;;;;;517827;28;760;-69
2022/03/27 00:52:58;;;;;;;19.13;14.20;;;;;;;;;;517506;28;934;-70
2022/03/27 00:53:13;;;;;;;19.38;13.88;;;;;;;;;;517756;28;1303;-70
2022/03/27 00:53:29;;;;;;;19.38;13.70;;;;;;;;;;517667;28;1032;-70
2022/03/27 00:53:44;;;;;;;18.23;13.57;;;;;;;;;;517922;28;788;-69
2022/03/27 00:54:00;;;;;;;16.93;13.30;;;;;;;;;;517811;28;926;-70
2022/03/27 00:54:15;;;;;;;17.30;13.52;;;;;;;;;;517942;28;843;-70
2022/03/27 00:54:31;;;;;;;18.20;13.73;;;;;;;;;;518120;28;733;-70
2022/03/27 00:54:46;;;;;;;19.17;13.80;;;;;;;;;;517274;28;805;-70
2022/03/27 00:55:01;;;;;;;20.63;14.05;;;;;;;;;;517701;28;931;-70
2022/03/27 00:55:16;;;;;;;19.40;13.70;;;;;;;;;;517350;28;919;-70
2022/03/27 00:55:32;;;;;;;17.90;13.73;;;;;;;;;;518024;28;1049;-70
2022/03/27 00:55:51;;;;;;;18.70;14.32;;;;;;;;;;521121;28;1148;-70
2022/03/27 00:56:06;;;;;;;19.48;14.45;;;;;;;;;;520252;28;1151;-70
2022/03/27 00:56:22;;;;;;;20.83;14.67;;;;;;;;;;519831;28;740;-69
2022/03/27 00:56:37;;;;;;;19.88;14.68;;;;;;;;;;517860;28;1390;-70
2022/03/27 00:56:52;;;;;;;19.27;14.03;;;;;;;;;;517861;28;812;-70
2022/03/27 00:57:08;;;;;;;19.67;13.80;;;;;;;;;;517707;28;1181;-70
2022/03/27 00:57:23;;;;;;;18.92;13.90;;;;;;;;;;517745;28;1441;-70
2022/03/27 00:57:38;;;;;;;19.20;13.87;;;;;;;;;;517702;28;927;-70
2022/03/27 00:57:55;;;;;;;19.20;13.87;;;;;;;;;;517685;28;1910;-70
2022/03/27 00:58:12;;;;;;;19.08;14.02;;;;;;;;;;517825;28;1275;-69
2022/03/27 00:58:27;;;;;;;18.30;13.63;;;;;;;;;;517356;28;1255;-70
2022/03/27 00:58:43;;;;;;;17.77;13.47;;;;;;;;;;515809;28;868;-69
2022/03/27 00:58:58;;;;;;;18.05;13.82;;;;;;;;;;513726;28;1339;-70
2022/03/27 00:59:14;;;;;;;19.20;14.37;;;;;;;;;;514047;28;819;-70
2022/03/27 00:59:29;;;;;;;19.25;14.10;;;;;;;;;;513944;28;781;-69
2022/03/27 00:59:44;;;;;;;20.00;13.40;;;;;;;;;;512024;28;1291;-70
2022/03/27 00:59:59;;;;;;;20.97;13.70;;;;;;;;;;511846;29;1288;-70
2022/03/27 01:00:39;;;;;;;19.53;13.70;;;;;;;;;;511513;29;1170;-70
2022/03/27 01:01:09;;;;;;;20.13;14.10;;;;;;;;;;512681;28;972;-70
2022/03/27 01:01:36;;;;;;;20.20;14.38;;;;;;;;;;515022;28;840;-70
2022/03/27 01:01:51;;;;;;;20.30;13.43;;;;;;;;;;517314;28;792;-70
2022/03/27 01:02:06;;;;;;;18.73;13.40;;;;;;;;;;518299;28;1275;-70
2022/03/27 01:02:24;;;;;;;17.20;13.27;;;;;;;;;;517632;28;1250;-70
2022/03/27 01:02:41;;;;;;;18.40;13.60;;;;;;;;;;517233;28;863;-70
2022/03/27 01:02:57;;;;;;;18.10;13.25;;;;;;;;;;515331;28;816;-70
2022/03/27 01:03:26;;;;;;;19.13;13.23;;;;;;;;;;515809;28;1241;-70
2022/03/27 01:03:43;;;;;;;19.75;13.75;;;;;;;;;;513543;28;903;-70
2022/03/27 01:03:58;;;;;;;17.58;13.40;;;;;;;;;;513473;28;860;-69
2022/03/27 01:04:14;;;;;;;18.35;13.27;;;;;;;;;;514641;28;848;-69
2022/03/27 01:04:29;;;;;;;21.53;13.77;;;;;;;;;;513597;28;1272;-69
2022/03/27 01:04:45;;;;;;;20.67;13.80;;;;;;;;;;513633;28;923;-69
2022/03/27 01:05:08;;;;;;;19.80;13.73;;;;;;;;;;513652;28;1193;-69
2022/03/27 01:05:23;;;;;;;20.40;13.98;;;;;;;;;;514781;28;868;-71
2022/03/27 01:05:40;;;;;;;18.57;13.83;;;;;;;;;;513632;28;1331;-70
2022/03/27 01:05:58;;;;;;;19.40;13.70;;;;;;;;;;513686;28;967;-70
2022/03/27 01:06:26;;;;;;;19.38;13.73;;;;;;;;;;515256;28;801;-70
2022/03/27 01:06:43;;;;;;;20.08;13.75;;;;;;;;;;517777;28;827;-70
2022/03/27 01:06:59;;;;;;;20.23;14.05;;;;;;;;;;517224;28;1332;-70
2022/03/27 01:07:20;;;;;;;19.40;13.67;;;;;;;;;;516717;28;1359;-70
2022/03/27 01:07:39;;;;;;;18.73;13.30;;;;;;;;;;517177;28;1343;-70
2022/03/27 01:07:55;;;;;;;19.10;13.73;;;;;;;;;;517653;28;836;-68
2022/03/27 01:08:13;;;;;;;19.57;13.60;;;;;;;;;;517194;28;1091;-68
2022/03/27 01:09:40;;;;;;;18.55;13.57;;;;;;;;;;517742;28;689;-69
2022/03/27 01:09:57;;;;;;;18.40;13.60;;;;;;;;;;517580;28;593;-68
2022/03/27 01:10:12;;;;;;;18.70;13.38;;;;;;;;;;517062;28;867;-68
2022/03/27 01:10:28;;;;;;;18.43;13.67;;;;;;;;;;517510;28;982;-69
2022/03/27 01:10:43;;;;;;;18.40;14.18;;;;;;;;;;519807;28;1358;-70
2022/03/27 01:10:58;;;;;;;18.03;13.80;;;;;;;;;;519702;28;879;-69
2022/03/27 01:11:19;;;;;;;16.90;13.17;;;;;;;;;;519639;28;745;-69
2022/03/27 01:11:36;;;;;;;17.58;13.23;;;;;;;;;;519682;28;1050;-69
2022/03/27 01:11:54;;;;;;;18.15;13.48;;;;;;;;;;519668;28;808;-69
2022/03/27 01:12:21;;;;;;;19.65;13.77;;;;;;;;;;519244;28;1278;-69
2022/03/27 01:12:39;;;;;;;18.27;13.32;;;;;;;;;;518957;28;807;-69
2022/03/27 01:12:54;;;;;;;18.30;13.73;;;;;;;;;;517402;28;943;-69
2022/03/27 01:13:11;;;;;;;19.97;13.90;;;;;;;;;;517723;28;1013;-69
2022/03/27 01:13:28;;;;;;;19.05;13.48;;;;;;;;;;517819;28;832;-69
2022/03/27 01:13:53;;;;;;;19.08;13.50;;;;;;;;;;517524;28;875;-69
2022/03/27 01:14:09;;;;;;;19.77;13.80;;;;;;;;;;517798;28;1215;-69
2022/03/27 01:14:30;;;;;;;19.13;13.95;;;;;;;;;;516931;28;777;-69
2022/03/27 01:14:46;;;;;;;18.55;14.02;;;;;;;;;;517535;28;851;-69
2022/03/27 01:15:02;;;;;;;19.00;13.97;;;;;;;;;;517779;28;767;-69
2022/03/27 01:15:31;;;;;;;19.35;14.10;;;;;;;;;;517304;28;867;-69
2022/03/27 01:15:53;;;;;;;19.42;13.52;;;;;;;;;;517641;28;941;-69
2022/03/27 01:16:17;;;;;;;18.67;13.38;;;;;;;;;;517798;28;847;-69
2022/03/27 01:16:32;;;;;;;19.02;13.70;;;;;;;;;;517600;28;832;-69
2022/03/27 01:17:08;;;;;;;18.00;13.30;;;;;;;;;;515811;28;1206;-69
2022/03/27 01:17:25;;;;;;;18.80;13.48;;;;;;;;;;515914;28;894;-69
2022/03/27 01:17:40;;;;;;;18.75;13.40;;;;;;;;;;517222;28;777;-69
2022/03/27 01:17:56;;;;;;;19.13;13.52;;;;;;;;;;518306;28;1976;-69
2022/03/27 01:18:12;;;;;;;20.00;13.80;;;;;;;;;;517676;28;989;-69
2022/03/27 01:18:27;;;;;;;18.30;13.60;;;;;;;;;;517537;28;890;-69
2022/03/27 01:18:43;;;;;;;17.53;13.43;;;;;;;;;;516444;28;776;-69
2022/03/27 01:19:00;;;;;;;16.98;13.45;;;;;;;;;;517759;28;1384;-69
2022/03/27 01:19:15;;;;;;;19.80;13.95;;;;;;;;;;517825;28;1215;-69
2022/03/27 01:19:31;;;;;;;21.20;14.30;;;;;;;;;;519177;28;943;-69
2022/03/27 01:19:49;;;;;;;18.33;13.57;;;;;;;;;;518633;28;832;-68
2022/03/27 01:20:05;;;;;;;19.13;13.65;;;;;;;;;;515779;28;1270;-69
2022/03/27 01:20:34;;;;;;;19.48;13.48;;;;;;;;;;516588;28;1248;-69
2022/03/27 01:20:49;;;;;;;18.02;13.52;;;;;;;;;;516789;28;920;-69
2022/03/27 01:21:07;;;;;;;18.58;13.43;;;;;;;;;;514040;28;1287;-69
2022/03/27 01:21:23;;;;;;;18.38;13.57;;;;;;;;;;515705;28;1383;-69
2022/03/27 01:21:41;;;;;;;18.00;13.68;;;;;;;;;;516040;28;804;-69
2022/03/27 01:21:57;;;;;;;19.20;14.10;;;;;;;;;;515848;28;979;-69
2022/03/27 01:22:14;;;;;;;19.13;14.13;;;;;;;;;;515830;28;1345;-69
2022/03/27 01:22:30;;;;;;;20.25;13.65;;;;;;;;;;515605;28;951;-69
2022/03/27 01:22:45;;;;;;;21.30;14.00;;;;;;;;;;513346;28;1292;-69
2022/03/27 01:23:01;;;;;;;20.13;14.10;;;;;;;;;;515198;28;800;-69
2022/03/27 01:23:16;;;;;;;19.27;13.93;;;;;;;;;;515919;28;880;-69
2022/03/27 01:23:32;;;;;;;19.60;13.90;;;;;;;;;;515884;28;1091;-69
2022/03/27 01:23:47;;;;;;;19.13;13.63;;;;;;;;;;513763;28;1157;-69
2022/03/27 01:24:03;;;;;;;17.27;13.20;;;;;;;;;;514075;28;995;-69
2022/03/27 01:24:18;;;;;;;18.65;13.45;;;;;;;;;;513558;28;1342;-68
2022/03/27 01:24:34;;;;;;;19.27;14.07;;;;;;;;;;513791;28;808;-69
2022/03/27 01:24:51;;;;;;;19.07;14.30;;;;;;;;;;513306;28;797;-69
2022/03/27 01:25:07;;;;;;;19.63;14.43;;;;;;;;;;513477;28;1016;-69
2022/03/27 01:25:22;;;;;;;18.87;14.17;;;;;;;;;;513204;28;808;-69
2022/03/27 01:25:39;;;;;;;18.65;14.30;;;;;;;;;;512366;28;1189;-69
2022/03/27 01:25:55;;;;;;;20.70;14.68;;;;;;;;;;514929;28;797;-69
2022/03/27 01:26:10;;;;;;;20.40;14.30;;;;;;;;;;518688;28;733;-69
2022/03/27 01:26:25;;;;;;;19.10;14.00;;;;;;;;;;517449;28;1357;-69
2022/03/27 01:26:40;;;;;;;20.23;14.17;;;;;;;;;;517695;28;951;-69
2022/03/27 01:26:56;;;;;;;20.43;13.87;;;;;;;;;;517262;28;1283;-69
2022/03/27 01:27:11;;;;;;;18.73;13.37;;;;;;;;;;517881;28;760;-69
2022/03/27 01:27:26;;;;;;;19.23;13.75;;;;;;;;;;515749;28;1173;-69
2022/03/27 01:27:42;;;;;;;21.10;13.80;;;;;;;;;;515742;28;1319;-69
2022/03/27 01:27:57;;;;;;;19.40;13.43;;;;;;;;;;515691;28;1326;-69
2022/03/27 01:28:14;;;;;;;19.05;13.50;;;;;;;;;;515581;28;714;-68
2022/03/27 01:28:29;;;;;;;21.70;13.85;;;;;;;;;;512293;28;1240;-69
2022/03/27 01:28:44;;;;;;;20.65;14.00;;;;;;;;;;511712;29;1276;-69
2022/03/27 01:29:00;;;;;;;19.13;13.60;;;;;;;;;;511583;29;990;-69
2022/03/27 01:29:15;;;;;;;18.50;13.30;;;;;;;;;;513230;28;809;-70
2022/03/27 01:29:31;;;;;;;17.10;13.10;;;;;;;;;;515892;28;919;-69
2022/03/27 01:29:47;;;;;;;18.48;13.48;;;;;;;;;;516001;28;923;-69
2022/03/27 01:30:02;;;;;;;19.17;13.63;;;;;;;;;;515358;28;840;-68
2022/03/27 01:30:18;;;;;;;18.67;13.40;;;;;;;;;;513769;28;1210;-69
2022/03/27 01:30:33;;;;;;;17.23;13.38;;;;;;;;;;516084;28;1343;-69
2022/03/27 01:30:48;;;;;;;18.27;13.70;;;;;;;;;;517834;28;1140;-69
2022/03/27 01:31:07;;;;;;;18.30;13.47;;;;;;;;;;517590;28;919;-69
2022/03/27 01:31:23;;;;;;;20.27;13.27;;;;;;;;;;517776;28;1016;-69
2022/03/27 01:31:38;;;;;;;22.08;13.55;;;;;;;;;;517717;28;945;-69
2022/03/27 01:31:55;;;;;;;20.53;13.20;;;;;;;;;;518067;28;808;-69
2022/03/27 01:32:14;;;;;;;18.25;13.02;;;;;;;;;;517909;28;971;-69
2022/03/27 01:32:29;;;;;;;19.67;13.73;;;;;;;;;;517494;28;1263;-69
2022/03/27 01:32:45;;;;;;;19.93;13.80;;;;;;;;;;517564;28;1224;-69
2022/03/27 01:33:02;;;;;;;19.17;13.43;;;;;;;;;;516879;28;1296;-69
2022/03/27 01:33:18;;;;;;;18.42;13.27;;;;;;;;;;516944;28;792;-69
2022/03/27 01:33:34;;;;;;;18.60;13.10;;;;;;;;;;517375;28;1109;-69
2022/03/27 01:33:49;;;;;;;17.98;13.13;;;;;;;;;;516670;28;1352;-69
2022/03/27 01:34:05;;;;;;;17.97;13.50;;;;;;;;;;515055;28;1419;-69
2022/03/27 01:34:20;;;;;;;18.15;13.70;;;;;;;;;;514918;28;1378;-69
2022/03/27 01:34:36;;;;;;;18.63;13.40;;;;;;;;;;517727;28;1157;-69
2022/03/27 01:34:51;;;;;;;19.45;13.55;;;;;;;;;;519514;28;789;-69
2022/03/27 01:35:07;;;;;;;20.17;13.77;;;;;;;;;;519374;28;845;-69
2022/03/27 01:35:23;;;;;;;19.00;13.43;;;;;;;;;;518861;28;907;-69
2022/03/27 01:35:38;;;;;;;18.63;13.57;;;;;;;;;;519738;28;978;-69
2022/03/27 01:35:53;;;;;;;19.60;13.60;;;;;;;;;;519792;28;997;-69
2022/03/27 01:36:08;;;;;;;20.60;13.40;;;;;;;;;;521834;28;1049;-69
2022/03/27 01:36:26;;;;;;;19.83;13.18;;;;;;;;;;521881;28;934;-69
2022/03/27 01:36:42;;;;;;;18.25;13.50;;;;;;;;;;522129;28;773;-69
2022/03/27 01:37:03;;;;;;;18.67;13.60;;;;;;;;;;521933;28;832;-69
2022/03/27 01:37:19;;;;;;;17.45;13.30;;;;;;;;;;521538;28;1482;-69
2022/03/27 01:37:34;;;;;;;18.87;13.60;;;;;;;;;;519963;28;1184;-69
2022/03/27 01:37:50;;;;;;;18.90;13.37;;;;;;;;;;519715;28;1973;-69
2022/03/27 01:38:05;;;;;;;17.95;13.10;;;;;;;;;;519832;28;1045;-69
2022/03/27 01:38:20;;;;;;;18.80;13.03;;;;;;;;;;520000;28;959;-69
2022/03/27 01:38:36;;;;;;;19.05;12.95;;;;;;;;;;519900;28;883;-69
2022/03/27 01:38:53;;;;;;;18.23;13.27;;;;;;;;;;519971;28;737;-69
2022/03/27 01:39:11;;;;;;;18.65;13.60;;;;;;;;;;519823;28;883;-69
2022/03/27 01:39:26;;;;;;;18.38;13.50;;;;;;;;;;519102;28;1215;-69
2022/03/27 01:39:42;;;;;;;17.57;13.43;;;;;;;;;;519811;28;824;-69
2022/03/27 01:39:57;;;;;;;18.42;13.35;;;;;;;;;;518579;28;2213;-69
2022/03/27 01:40:13;;;;;;;18.27;13.57;;;;;;;;;;516990;28;840;-69